sensor_id;sensor_type;location;lat;lon;timestamp;P1;durP1;ratioP1;P2;durP2;ratioP2
56373;SDS011;58212;47.034;7.376;2024-02-26T00:01:48;2.67;;;2.47;;
56373;SDS011;58212;47.034;7.376;2024-02-26T00:04:15;2.92;;;2.30;;
56373;SDS011;58212;47.034;7.376;2024-02-26T00:06:42;2.75;;;2.20;;
56373;SDS011;58212;47.034;7.376;2024-02-26T00:09:09;2.78;;;2.50;;
56373;SDS011;58212;47.034;7.376;2024-02-26T00:11:36;4.15;;;2.40;;
56373;SDS011;58212;47.034;7.376;2024-02-26T00:14:03;2.85;;;2.38;;
56373;SDS011;58212;47.034;7.376;2024-02-26T00:16:31;3.45;;;2.10;;
56373;SDS011;58212;47.034;7.376;2024-02-26T00:18:58;2.90;;;2.33;;
56373;SDS011;58212;47.034;7.376;2024-02-26T00:21:24;3.45;;;2.38;;
56373;SDS011;58212;47.034;7.376;2024-02-26T00:23:52;2.10;;;1.90;;
56373;SDS011;58212;47.034;7.376;2024-02-26T00:26:19;2.10;;;1.90;;
56373;SDS011;58212;47.034;7.376;2024-02-26T00:28:46;2.03;;;1.52;;
56373;SDS011;58212;47.034;7.376;2024-02-26T00:31:12;2.53;;;1.65;;
56373;SDS011;58212;47.034;7.376;2024-02-26T00:33:41;2.45;;;1.70;;
56373;SDS011;58212;47.034;7.376;2024-02-26T00:36:07;2.03;;;1.63;;
56373;SDS011;58212;47.034;7.376;2024-02-26T00:38:35;1.85;;;1.65;;
56373;SDS011;58212;47.034;7.376;2024-02-26T00:41:02;1.60;;;1.50;;
56373;SDS011;58212;47.034;7.376;2024-02-26T00:43:29;2.10;;;1.90;;
56373;SDS011;58212;47.034;7.376;2024-02-26T00:45:55;1.98;;;1.65;;
56373;SDS011;58212;47.034;7.376;2024-02-26T00:48:22;1.70;;;1.30;;
56373;SDS011;58212;47.034;7.376;2024-02-26T00:50:52;1.55;;;1.45;;
56373;SDS011;58212;47.034;7.376;2024-02-26T00:53:18;1.60;;;1.50;;
56373;SDS011;58212;47.034;7.376;2024-02-26T00:55:45;1.60;;;1.50;;
56373;SDS011;58212;47.034;7.376;2024-02-26T00:58:12;3.63;;;1.90;;
56373;SDS011;58212;47.034;7.376;2024-02-26T01:00:39;1.73;;;1.60;;
56373;SDS011;58212;47.034;7.376;2024-02-26T01:03:05;2.08;;;1.77;;
56373;SDS011;58212;47.034;7.376;2024-02-26T01:05:32;2.45;;;1.58;;
56373;SDS011;58212;47.034;7.376;2024-02-26T01:08:01;1.85;;;1.73;;
56373;SDS011;58212;47.034;7.376;2024-02-26T01:10:27;2.97;;;2.08;;
56373;SDS011;58212;47.034;7.376;2024-02-26T01:12:54;2.30;;;2.10;;
56373;SDS011;58212;47.034;7.376;2024-02-26T01:15:21;2.30;;;2.10;;
56373;SDS011;58212;47.034;7.376;2024-02-26T01:17:49;2.33;;;2.13;;
56373;SDS011;58212;47.034;7.376;2024-02-26T01:20:15;2.05;;;1.85;;
56373;SDS011;58212;47.034;7.376;2024-02-26T01:22:42;2.63;;;2.03;;
56373;SDS011;58212;47.034;7.376;2024-02-26T01:25:11;2.28;;;2.08;;
56373;SDS011;58212;47.034;7.376;2024-02-26T01:27:38;2.28;;;2.08;;
56373;SDS011;58212;47.034;7.376;2024-02-26T01:30:06;2.10;;;1.90;;
56373;SDS011;58212;47.034;7.376;2024-02-26T01:32:34;2.00;;;1.90;;
56373;SDS011;58212;47.034;7.376;2024-02-26T01:35:01;1.50;;;1.40;;
56373;SDS011;58212;47.034;7.376;2024-02-26T01:37:29;2.00;;;1.80;;
56373;SDS011;58212;47.034;7.376;2024-02-26T01:39:56;3.17;;;2.00;;
56373;SDS011;58212;47.034;7.376;2024-02-26T01:42:24;1.52;;;1.42;;
56373;SDS011;58212;47.034;7.376;2024-02-26T01:44:51;2.42;;;1.42;;
56373;SDS011;58212;47.034;7.376;2024-02-26T01:47:17;1.60;;;1.48;;
56373;SDS011;58212;47.034;7.376;2024-02-26T01:49:45;1.27;;;1.17;;
56373;SDS011;58212;47.034;7.376;2024-02-26T01:52:12;1.30;;;1.20;;
56373;SDS011;58212;47.034;7.376;2024-02-26T01:54:39;1.17;;;1.08;;
56373;SDS011;58212;47.034;7.376;2024-02-26T01:57:06;0.88;;;0.80;;
56373;SDS011;58212;47.034;7.376;2024-02-26T01:59:36;1.40;;;0.82;;
56373;SDS011;58212;47.034;7.376;2024-02-26T02:02:05;1.48;;;0.82;;
56373;SDS011;58212;47.034;7.376;2024-02-26T02:04:34;1.00;;;0.80;;
56373;SDS011;58212;47.034;7.376;2024-02-26T02:07:01;0.82;;;0.82;;
56373;SDS011;58212;47.034;7.376;2024-02-26T02:09:29;0.50;;;0.50;;
56373;SDS011;58212;47.034;7.376;2024-02-26T02:11:55;0.85;;;0.73;;
56373;SDS011;58212;47.034;7.376;2024-02-26T02:14:23;2.17;;;0.93;;
56373;SDS011;58212;47.034;7.376;2024-02-26T02:16:53;0.98;;;0.70;;
56373;SDS011;58212;47.034;7.376;2024-02-26T02:19:20;0.82;;;0.70;;
56373;SDS011;58212;47.034;7.376;2024-02-26T02:21:48;0.60;;;0.60;;
56373;SDS011;58212;47.034;7.376;2024-02-26T02:24:15;0.82;;;0.70;;
56373;SDS011;58212;47.034;7.376;2024-02-26T02:26:42;1.38;;;0.60;;
56373;SDS011;58212;47.034;7.376;2024-02-26T02:29:09;0.60;;;0.60;;
56373;SDS011;58212;47.034;7.376;2024-02-26T02:31:36;0.60;;;0.60;;
56373;SDS011;58212;47.034;7.376;2024-02-26T02:34:02;0.60;;;0.60;;
56373;SDS011;58212;47.034;7.376;2024-02-26T02:36:30;0.50;;;0.45;;
56373;SDS011;58212;47.034;7.376;2024-02-26T02:38:58;0.77;;;0.60;;
56373;SDS011;58212;47.034;7.376;2024-02-26T02:41:24;0.40;;;0.40;;
56373;SDS011;58212;47.034;7.376;2024-02-26T02:43:55;0.63;;;0.50;;
56373;SDS011;58212;47.034;7.376;2024-02-26T02:46:21;0.75;;;0.50;;
56373;SDS011;58212;47.034;7.376;2024-02-26T02:48:48;0.70;;;0.68;;
56373;SDS011;58212;47.034;7.376;2024-02-26T02:51:16;0.60;;;0.60;;
56373;SDS011;58212;47.034;7.376;2024-02-26T02:53:42;1.50;;;0.60;;
56373;SDS011;58212;47.034;7.376;2024-02-26T02:56:11;0.40;;;0.40;;
56373;SDS011;58212;47.034;7.376;2024-02-26T02:58:38;1.20;;;0.50;;
56373;SDS011;58212;47.034;7.376;2024-02-26T03:01:04;1.25;;;0.50;;
56373;SDS011;58212;47.034;7.376;2024-02-26T03:03:31;0.70;;;0.40;;
56373;SDS011;58212;47.034;7.376;2024-02-26T03:05:58;0.80;;;0.50;;
56373;SDS011;58212;47.034;7.376;2024-02-26T03:08:25;0.30;;;0.30;;
56373;SDS011;58212;47.034;7.376;2024-02-26T03:10:51;0.95;;;0.50;;
56373;SDS011;58212;47.034;7.376;2024-02-26T03:13:20;1.13;;;0.40;;
56373;SDS011;58212;47.034;7.376;2024-02-26T03:15:47;0.30;;;0.30;;
56373;SDS011;58212;47.034;7.376;2024-02-26T03:18:14;1.63;;;0.40;;
56373;SDS011;58212;47.034;7.376;2024-02-26T03:20:40;0.40;;;0.40;;
56373;SDS011;58212;47.034;7.376;2024-02-26T03:23:07;0.40;;;0.40;;
56373;SDS011;58212;47.034;7.376;2024-02-26T03:25:37;0.95;;;0.40;;
56373;SDS011;58212;47.034;7.376;2024-02-26T03:28:04;0.30;;;0.30;;
56373;SDS011;58212;47.034;7.376;2024-02-26T03:30:33;0.40;;;0.40;;
56373;SDS011;58212;47.034;7.376;2024-02-26T03:33:00;0.47;;;0.30;;
56373;SDS011;58212;47.034;7.376;2024-02-26T03:35:26;0.38;;;0.38;;
56373;SDS011;58212;47.034;7.376;2024-02-26T03:37:53;0.88;;;0.50;;
56373;SDS011;58212;47.034;7.376;2024-02-26T03:40:20;0.82;;;0.40;;
56373;SDS011;58212;47.034;7.376;2024-02-26T03:42:47;0.80;;;0.60;;
56373;SDS011;58212;47.034;7.376;2024-02-26T03:45:13;0.70;;;0.43;;
56373;SDS011;58212;47.034;7.376;2024-02-26T03:47:41;0.50;;;0.50;;
56373;SDS011;58212;47.034;7.376;2024-02-26T03:50:08;0.60;;;0.60;;
56373;SDS011;58212;47.034;7.376;2024-02-26T03:52:35;0.93;;;0.52;;
56373;SDS011;58212;47.034;7.376;2024-02-26T03:55:02;1.27;;;0.63;;
56373;SDS011;58212;47.034;7.376;2024-02-26T03:57:28;1.40;;;0.60;;
56373;SDS011;58212;47.034;7.376;2024-02-26T03:59:55;0.40;;;0.40;;
56373;SDS011;58212;47.034;7.376;2024-02-26T04:02:22;1.05;;;0.75;;
56373;SDS011;58212;47.034;7.376;2024-02-26T04:04:52;0.98;;;0.70;;
56373;SDS011;58212;47.034;7.376;2024-02-26T04:07:18;0.88;;;0.85;;
56373;SDS011;58212;47.034;7.376;2024-02-26T04:09:45;0.60;;;0.60;;
56373;SDS011;58212;47.034;7.376;2024-02-26T04:12:12;0.30;;;0.30;;
56373;SDS011;58212;47.034;7.376;2024-02-26T04:14:39;0.20;;;0.20;;
56373;SDS011;58212;47.034;7.376;2024-02-26T04:17:06;0.40;;;0.30;;
56373;SDS011;58212;47.034;7.376;2024-02-26T04:19:33;0.30;;;0.30;;
56373;SDS011;58212;47.034;7.376;2024-02-26T04:22:01;0.50;;;0.50;;
56373;SDS011;58212;47.034;7.376;2024-02-26T04:24:28;1.30;;;0.50;;
56373;SDS011;58212;47.034;7.376;2024-02-26T04:26:55;0.40;;;0.40;;
56373;SDS011;58212;47.034;7.376;2024-02-26T04:29:22;0.50;;;0.40;;
56373;SDS011;58212;47.034;7.376;2024-02-26T04:31:48;0.30;;;0.30;;
56373;SDS011;58212;47.034;7.376;2024-02-26T04:34:16;0.75;;;0.40;;
56373;SDS011;58212;47.034;7.376;2024-02-26T04:36:42;0.32;;;0.30;;
56373;SDS011;58212;47.034;7.376;2024-02-26T04:39:11;0.43;;;0.32;;
56373;SDS011;58212;47.034;7.376;2024-02-26T04:41:36;0.30;;;0.22;;
56373;SDS011;58212;47.034;7.376;2024-02-26T04:44:04;0.30;;;0.30;;
56373;SDS011;58212;47.034;7.376;2024-02-26T04:46:30;0.98;;;0.30;;
56373;SDS011;58212;47.034;7.376;2024-02-26T04:48:57;1.23;;;0.38;;
56373;SDS011;58212;47.034;7.376;2024-02-26T04:51:24;0.95;;;0.45;;
56373;SDS011;58212;47.034;7.376;2024-02-26T04:53:51;0.32;;;0.32;;
56373;SDS011;58212;47.034;7.376;2024-02-26T04:56:20;0.82;;;0.30;;
56373;SDS011;58212;47.034;7.376;2024-02-26T04:58:47;0.30;;;0.30;;
56373;SDS011;58212;47.034;7.376;2024-02-26T05:01:14;0.20;;;0.20;;
56373;SDS011;58212;47.034;7.376;2024-02-26T05:03:43;0.82;;;0.30;;
56373;SDS011;58212;47.034;7.376;2024-02-26T05:06:09;0.45;;;0.30;;
56373;SDS011;58212;47.034;7.376;2024-02-26T05:08:37;0.50;;;0.50;;
56373;SDS011;58212;47.034;7.376;2024-02-26T05:11:04;0.68;;;0.40;;
56373;SDS011;58212;47.034;7.376;2024-02-26T05:13:32;0.50;;;0.30;;
56373;SDS011;58212;47.034;7.376;2024-02-26T05:15:59;0.30;;;0.30;;
56373;SDS011;58212;47.034;7.376;2024-02-26T05:18:25;0.30;;;0.30;;
56373;SDS011;58212;47.034;7.376;2024-02-26T05:20:52;0.30;;;0.30;;
56373;SDS011;58212;47.034;7.376;2024-02-26T05:23:19;0.30;;;0.30;;
56373;SDS011;58212;47.034;7.376;2024-02-26T05:25:46;1.25;;;0.40;;
56373;SDS011;58212;47.034;7.376;2024-02-26T05:28:13;1.15;;;0.40;;
56373;SDS011;58212;47.034;7.376;2024-02-26T05:30:43;2.85;;;0.50;;
56373;SDS011;58212;47.034;7.376;2024-02-26T05:33:10;0.45;;;0.32;;
56373;SDS011;58212;47.034;7.376;2024-02-26T05:35:36;0.47;;;0.30;;
56373;SDS011;58212;47.034;7.376;2024-02-26T05:38:03;0.50;;;0.40;;
56373;SDS011;58212;47.034;7.376;2024-02-26T05:40:30;0.40;;;0.30;;
56373;SDS011;58212;47.034;7.376;2024-02-26T05:42:57;0.60;;;0.40;;
56373;SDS011;58212;47.034;7.376;2024-02-26T05:45:24;0.63;;;0.30;;
56373;SDS011;58212;47.034;7.376;2024-02-26T05:47:52;0.30;;;0.30;;
56373;SDS011;58212;47.034;7.376;2024-02-26T05:50:19;0.50;;;0.47;;
56373;SDS011;58212;47.034;7.376;2024-02-26T05:52:46;1.00;;;0.50;;
56373;SDS011;58212;47.034;7.376;2024-02-26T05:55:12;0.85;;;0.40;;
56373;SDS011;58212;47.034;7.376;2024-02-26T05:57:39;1.25;;;0.65;;
56373;SDS011;58212;47.034;7.376;2024-02-26T06:00:07;1.17;;;0.50;;
56373;SDS011;58212;47.034;7.376;2024-02-26T06:02:38;0.47;;;0.43;;
56373;SDS011;58212;47.034;7.376;2024-02-26T06:05:06;0.63;;;0.50;;
56373;SDS011;58212;47.034;7.376;2024-02-26T06:07:34;1.95;;;0.68;;
56373;SDS011;58212;47.034;7.376;2024-02-26T06:10:01;0.80;;;0.68;;
56373;SDS011;58212;47.034;7.376;2024-02-26T06:12:30;1.35;;;0.50;;
56373;SDS011;58212;47.034;7.376;2024-02-26T06:14:57;0.70;;;0.50;;
56373;SDS011;58212;47.034;7.376;2024-02-26T06:17:26;1.15;;;0.80;;
56373;SDS011;58212;47.034;7.376;2024-02-26T06:19:53;0.68;;;0.68;;
56373;SDS011;58212;47.034;7.376;2024-02-26T06:22:21;0.50;;;0.50;;
56373;SDS011;58212;47.034;7.376;2024-02-26T06:24:47;0.50;;;0.40;;
56373;SDS011;58212;47.034;7.376;2024-02-26T06:27:14;0.73;;;0.57;;
56373;SDS011;58212;47.034;7.376;2024-02-26T06:29:41;0.50;;;0.50;;
56373;SDS011;58212;47.034;7.376;2024-02-26T06:32:08;0.50;;;0.30;;
56373;SDS011;58212;47.034;7.376;2024-02-26T06:34:34;2.45;;;0.95;;
56373;SDS011;58212;47.034;7.376;2024-02-26T06:37:03;0.50;;;0.50;;
56373;SDS011;58212;47.034;7.376;2024-02-26T06:39:31;1.17;;;0.50;;
56373;SDS011;58212;47.034;7.376;2024-02-26T06:41:58;0.80;;;0.60;;
56373;SDS011;58212;47.034;7.376;2024-02-26T06:44:26;0.98;;;0.70;;
56373;SDS011;58212;47.034;7.376;2024-02-26T06:46:57;2.28;;;0.60;;
56373;SDS011;58212;47.034;7.376;2024-02-26T06:49:25;1.05;;;0.52;;
56373;SDS011;58212;47.034;7.376;2024-02-26T06:51:51;0.40;;;0.40;;
56373;SDS011;58212;47.034;7.376;2024-02-26T06:54:18;1.42;;;0.40;;
56373;SDS011;58212;47.034;7.376;2024-02-26T06:56:47;0.40;;;0.40;;
56373;SDS011;58212;47.034;7.376;2024-02-26T06:59:15;0.50;;;0.50;;
56373;SDS011;58212;47.034;7.376;2024-02-26T07:01:42;0.43;;;0.43;;
56373;SDS011;58212;47.034;7.376;2024-02-26T07:04:09;0.40;;;0.40;;
56373;SDS011;58212;47.034;7.376;2024-02-26T07:06:36;0.70;;;0.30;;
56373;SDS011;58212;47.034;7.376;2024-02-26T07:09:04;1.88;;;0.68;;
56373;SDS011;58212;47.034;7.376;2024-02-26T07:11:30;1.20;;;0.73;;
56373;SDS011;58212;47.034;7.376;2024-02-26T07:13:58;1.15;;;0.40;;
56373;SDS011;58212;47.034;7.376;2024-02-26T07:16:26;0.80;;;0.40;;
56373;SDS011;58212;47.034;7.376;2024-02-26T07:18:53;0.40;;;0.40;;
56373;SDS011;58212;47.034;7.376;2024-02-26T07:21:20;0.50;;;0.50;;
56373;SDS011;58212;47.034;7.376;2024-02-26T07:23:47;2.58;;;0.63;;
56373;SDS011;58212;47.034;7.376;2024-02-26T07:26:13;1.15;;;0.50;;
56373;SDS011;58212;47.034;7.376;2024-02-26T07:28:40;0.73;;;0.50;;
56373;SDS011;58212;47.034;7.376;2024-02-26T07:31:08;1.00;;;0.60;;
56373;SDS011;58212;47.034;7.376;2024-02-26T07:33:35;0.60;;;0.60;;
56373;SDS011;58212;47.034;7.376;2024-02-26T07:36:02;0.80;;;0.57;;
56373;SDS011;58212;47.034;7.376;2024-02-26T07:38:29;1.08;;;0.70;;
56373;SDS011;58212;47.034;7.376;2024-02-26T07:40:56;1.30;;;0.57;;
56373;SDS011;58212;47.034;7.376;2024-02-26T07:43:23;0.80;;;0.63;;
56373;SDS011;58212;47.034;7.376;2024-02-26T07:45:50;0.60;;;0.60;;
56373;SDS011;58212;47.034;7.376;2024-02-26T07:48:18;3.63;;;0.80;;
56373;SDS011;58212;47.034;7.376;2024-02-26T07:50:44;1.83;;;0.90;;
56373;SDS011;58212;47.034;7.376;2024-02-26T07:53:11;1.40;;;1.30;;
56373;SDS011;58212;47.034;7.376;2024-02-26T07:55:39;1.63;;;1.52;;
56373;SDS011;58212;47.034;7.376;2024-02-26T07:58:06;0.77;;;0.77;;
56373;SDS011;58212;47.034;7.376;2024-02-26T08:00:33;1.67;;;1.27;;
56373;SDS011;58212;47.034;7.376;2024-02-26T08:03:00;1.30;;;1.20;;
56373;SDS011;58212;47.034;7.376;2024-02-26T08:05:28;2.20;;;2.00;;
56373;SDS011;58212;47.034;7.376;2024-02-26T08:07:55;3.90;;;3.03;;
56373;SDS011;58212;47.034;7.376;2024-02-26T08:10:22;1.73;;;1.00;;
56373;SDS011;58212;47.034;7.376;2024-02-26T08:12:49;1.10;;;1.00;;
56373;SDS011;58212;47.034;7.376;2024-02-26T08:15:15;1.08;;;0.98;;
56373;SDS011;58212;47.034;7.376;2024-02-26T08:17:44;0.82;;;0.80;;
56373;SDS011;58212;47.034;7.376;2024-02-26T08:20:12;1.15;;;1.05;;
56373;SDS011;58212;47.034;7.376;2024-02-26T08:22:40;2.30;;;0.93;;
56373;SDS011;58212;47.034;7.376;2024-02-26T08:25:08;0.82;;;0.82;;
56373;SDS011;58212;47.034;7.376;2024-02-26T08:27:35;1.30;;;1.00;;
56373;SDS011;58212;47.034;7.376;2024-02-26T08:30:03;0.90;;;0.90;;
56373;SDS011;58212;47.034;7.376;2024-02-26T08:32:30;3.17;;;0.98;;
56373;SDS011;58212;47.034;7.376;2024-02-26T08:34:57;1.70;;;1.00;;
56373;SDS011;58212;47.034;7.376;2024-02-26T08:37:23;1.83;;;1.30;;
56373;SDS011;58212;47.034;7.376;2024-02-26T08:39:52;2.28;;;2.08;;
56373;SDS011;58212;47.034;7.376;2024-02-26T08:42:18;1.98;;;1.75;;
56373;SDS011;58212;47.034;7.376;2024-02-26T08:44:45;2.75;;;2.55;;
56373;SDS011;58212;47.034;7.376;2024-02-26T08:47:12;3.90;;;2.35;;
56373;SDS011;58212;47.034;7.376;2024-02-26T08:49:42;2.65;;;1.98;;
56373;SDS011;58212;47.034;7.376;2024-02-26T08:52:09;1.60;;;1.50;;
56373;SDS011;58212;47.034;7.376;2024-02-26T08:54:35;1.10;;;1.00;;
56373;SDS011;58212;47.034;7.376;2024-02-26T08:57:04;0.93;;;0.80;;
56373;SDS011;58212;47.034;7.376;2024-02-26T08:59:30;0.88;;;0.65;;
56373;SDS011;58212;47.034;7.376;2024-02-26T09:01:57;0.95;;;0.85;;
56373;SDS011;58212;47.034;7.376;2024-02-26T09:04:24;1.08;;;0.90;;
56373;SDS011;58212;47.034;7.376;2024-02-26T09:06:51;0.85;;;0.82;;
56373;SDS011;58212;47.034;7.376;2024-02-26T09:09:19;0.80;;;0.80;;
56373;SDS011;58212;47.034;7.376;2024-02-26T09:11:47;0.65;;;0.65;;
56373;SDS011;58212;47.034;7.376;2024-02-26T09:14:18;0.68;;;0.68;;
56373;SDS011;58212;47.034;7.376;2024-02-26T09:16:45;1.58;;;1.00;;
56373;SDS011;58212;47.034;7.376;2024-02-26T09:19:13;0.85;;;0.77;;
56373;SDS011;58212;47.034;7.376;2024-02-26T09:21:41;0.70;;;0.55;;
56373;SDS011;58212;47.034;7.376;2024-02-26T09:24:09;0.63;;;0.60;;
56373;SDS011;58212;47.034;7.376;2024-02-26T09:26:35;1.23;;;0.90;;
56373;SDS011;58212;47.034;7.376;2024-02-26T09:29:02;1.15;;;0.85;;
56373;SDS011;58212;47.034;7.376;2024-02-26T09:31:30;1.25;;;0.93;;
56373;SDS011;58212;47.034;7.376;2024-02-26T09:33:59;2.55;;;0.95;;
56373;SDS011;58212;47.034;7.376;2024-02-26T09:36:26;0.52;;;0.52;;
56373;SDS011;58212;47.034;7.376;2024-02-26T09:38:52;1.15;;;1.05;;
56373;SDS011;58212;47.034;7.376;2024-02-26T09:41:19;1.98;;;1.08;;
56373;SDS011;58212;47.034;7.376;2024-02-26T09:43:46;1.15;;;1.00;;
56373;SDS011;58212;47.034;7.376;2024-02-26T09:46:17;1.10;;;1.10;;
56373;SDS011;58212;47.034;7.376;2024-02-26T09:48:46;1.00;;;0.90;;
56373;SDS011;58212;47.034;7.376;2024-02-26T09:51:14;2.05;;;1.00;;
56373;SDS011;58212;47.034;7.376;2024-02-26T09:53:42;1.70;;;0.90;;
56373;SDS011;58212;47.034;7.376;2024-02-26T09:56:11;1.13;;;0.82;;
56373;SDS011;58212;47.034;7.376;2024-02-26T09:58:38;1.13;;;1.02;;
56373;SDS011;58212;47.034;7.376;2024-02-26T10:01:09;1.20;;;0.93;;
56373;SDS011;58212;47.034;7.376;2024-02-26T10:03:38;1.80;;;1.40;;
56373;SDS011;58212;47.034;7.376;2024-02-26T10:06:10;3.00;;;1.50;;
56373;SDS011;58212;47.034;7.376;2024-02-26T10:08:37;1.05;;;0.95;;
56373;SDS011;58212;47.034;7.376;2024-02-26T10:11:04;1.13;;;0.93;;
56373;SDS011;58212;47.034;7.376;2024-02-26T10:13:33;1.40;;;0.98;;
56373;SDS011;58212;47.034;7.376;2024-02-26T10:16:01;1.08;;;1.00;;
56373;SDS011;58212;47.034;7.376;2024-02-26T10:21:15;1.13;;;1.02;;
56373;SDS011;58212;47.034;7.376;2024-02-26T10:23:43;1.20;;;1.10;;
56373;SDS011;58212;47.034;7.376;2024-02-26T10:26:10;1.85;;;1.10;;
56373;SDS011;58212;47.034;7.376;2024-02-26T10:28:37;1.60;;;1.30;;
56373;SDS011;58212;47.034;7.376;2024-02-26T10:31:04;1.45;;;1.17;;
56373;SDS011;58212;47.034;7.376;2024-02-26T10:33:32;1.45;;;1.27;;
56373;SDS011;58212;47.034;7.376;2024-02-26T10:36:01;1.70;;;0.90;;
56373;SDS011;58212;47.034;7.376;2024-02-26T10:38:30;1.15;;;1.00;;
56373;SDS011;58212;47.034;7.376;2024-02-26T10:40:58;0.80;;;0.80;;
56373;SDS011;58212;47.034;7.376;2024-02-26T10:43:25;1.02;;;1.00;;
56373;SDS011;58212;47.034;7.376;2024-02-26T10:45:52;1.10;;;0.90;;
56373;SDS011;58212;47.034;7.376;2024-02-26T10:48:21;2.92;;;1.10;;
56373;SDS011;58212;47.034;7.376;2024-02-26T10:50:48;0.80;;;0.80;;
56373;SDS011;58212;47.034;7.376;2024-02-26T10:53:16;1.42;;;1.00;;
56373;SDS011;58212;47.034;7.376;2024-02-26T10:55:48;1.40;;;1.00;;
56373;SDS011;58212;47.034;7.376;2024-02-26T10:58:18;1.05;;;1.02;;
56373;SDS011;58212;47.034;7.376;2024-02-26T11:00:46;1.00;;;0.80;;
56373;SDS011;58212;47.034;7.376;2024-02-26T11:03:13;0.93;;;0.93;;
56373;SDS011;58212;47.034;7.376;2024-02-26T11:05:42;1.77;;;0.95;;
56373;SDS011;58212;47.034;7.376;2024-02-26T11:08:10;1.27;;;1.17;;
56373;SDS011;58212;47.034;7.376;2024-02-26T11:10:38;0.88;;;0.80;;
56373;SDS011;58212;47.034;7.376;2024-02-26T11:13:09;1.70;;;1.23;;
56373;SDS011;58212;47.034;7.376;2024-02-26T11:15:38;0.90;;;0.90;;
56373;SDS011;58212;47.034;7.376;2024-02-26T11:18:06;0.88;;;0.88;;
56373;SDS011;58212;47.034;7.376;2024-02-26T11:20:35;1.02;;;1.02;;
56373;SDS011;58212;47.034;7.376;2024-02-26T11:23:05;2.55;;;2.20;;
56373;SDS011;58212;47.034;7.376;2024-02-26T11:25:33;1.40;;;1.30;;
56373;SDS011;58212;47.034;7.376;2024-02-26T11:28:01;1.60;;;1.10;;
56373;SDS011;58212;47.034;7.376;2024-02-26T11:30:33;1.10;;;1.00;;
56373;SDS011;58212;47.034;7.376;2024-02-26T11:33:04;0.90;;;0.90;;
56373;SDS011;58212;47.034;7.376;2024-02-26T11:35:34;1.48;;;1.05;;
56373;SDS011;58212;47.034;7.376;2024-02-26T11:38:03;1.10;;;1.00;;
56373;SDS011;58212;47.034;7.376;2024-02-26T11:40:32;1.15;;;1.00;;
56373;SDS011;58212;47.034;7.376;2024-02-26T11:42:59;1.10;;;1.00;;
56373;SDS011;58212;47.034;7.376;2024-02-26T11:45:48;0.90;;;0.90;;
56373;SDS011;58212;47.034;7.376;2024-02-26T11:48:21;1.20;;;1.10;;
56373;SDS011;58212;47.034;7.376;2024-02-26T11:50:49;1.67;;;1.23;;
56373;SDS011;58212;47.034;7.376;2024-02-26T11:53:20;1.40;;;1.30;;
56373;SDS011;58212;47.034;7.376;2024-02-26T11:58:39;2.35;;;1.33;;
56373;SDS011;58212;47.034;7.376;2024-02-26T12:04:12;1.38;;;1.23;;
56373;SDS011;58212;47.034;7.376;2024-02-26T12:06:41;1.83;;;1.45;;
56373;SDS011;58212;47.034;7.376;2024-02-26T12:09:08;2.35;;;1.17;;
56373;SDS011;58212;47.034;7.376;2024-02-26T12:11:37;1.38;;;1.05;;
56373;SDS011;58212;47.034;7.376;2024-02-26T12:16:36;1.00;;;1.00;;
56373;SDS011;58212;47.034;7.376;2024-02-26T12:19:06;1.60;;;1.50;;
56373;SDS011;58212;47.034;7.376;2024-02-26T12:21:34;1.40;;;1.23;;
56373;SDS011;58212;47.034;7.376;2024-02-26T12:24:12;1.58;;;1.23;;
56373;SDS011;58212;47.034;7.376;2024-02-26T12:26:39;1.20;;;1.10;;
56373;SDS011;58212;47.034;7.376;2024-02-26T12:29:06;1.23;;;1.10;;
56373;SDS011;58212;47.034;7.376;2024-02-26T12:31:34;1.50;;;1.40;;
56373;SDS011;58212;47.034;7.376;2024-02-26T12:34:02;1.30;;;1.20;;
56373;SDS011;58212;47.034;7.376;2024-02-26T12:36:31;1.77;;;1.30;;
56373;SDS011;58212;47.034;7.376;2024-02-26T12:39:00;3.00;;;1.50;;
56373;SDS011;58212;47.034;7.376;2024-02-26T12:41:31;1.25;;;1.15;;
56373;SDS011;58212;47.034;7.376;2024-02-26T12:43:58;2.58;;;1.27;;
56373;SDS011;58212;47.034;7.376;2024-02-26T12:46:27;1.95;;;1.40;;
56373;SDS011;58212;47.034;7.376;2024-02-26T12:48:55;1.33;;;1.23;;
56373;SDS011;58212;47.034;7.376;2024-02-26T12:51:24;4.07;;;1.50;;
56373;SDS011;58212;47.034;7.376;2024-02-26T12:53:53;1.08;;;0.98;;
56373;SDS011;58212;47.034;7.376;2024-02-26T12:56:21;1.20;;;1.10;;
56373;SDS011;58212;47.034;7.376;2024-02-26T12:58:48;6.88;;;1.08;;
56373;SDS011;58212;47.034;7.376;2024-02-26T13:01:18;2.08;;;1.10;;
56373;SDS011;58212;47.034;7.376;2024-02-26T13:03:47;1.13;;;1.02;;
56373;SDS011;58212;47.034;7.376;2024-02-26T13:06:16;1.90;;;1.20;;
56373;SDS011;58212;47.034;7.376;2024-02-26T13:08:44;1.52;;;1.08;;
56373;SDS011;58212;47.034;7.376;2024-02-26T13:11:13;3.65;;;1.20;;
56373;SDS011;58212;47.034;7.376;2024-02-26T13:13:40;1.02;;;0.95;;
56373;SDS011;58212;47.034;7.376;2024-02-26T13:16:08;1.45;;;1.20;;
56373;SDS011;58212;47.034;7.376;2024-02-26T13:18:36;0.88;;;0.85;;
56373;SDS011;58212;47.034;7.376;2024-02-26T13:21:09;1.42;;;0.90;;
56373;SDS011;58212;47.034;7.376;2024-02-26T13:23:37;1.38;;;0.98;;
56373;SDS011;58212;47.034;7.376;2024-02-26T13:26:04;1.05;;;0.95;;
56373;SDS011;58212;47.034;7.376;2024-02-26T13:28:33;2.88;;;1.02;;
56373;SDS011;58212;47.034;7.376;2024-02-26T13:31:01;1.00;;;0.98;;
56373;SDS011;58212;47.034;7.376;2024-02-26T13:33:29;1.00;;;1.00;;
56373;SDS011;58212;47.034;7.376;2024-02-26T13:35:57;1.10;;;1.00;;
56373;SDS011;58212;47.034;7.376;2024-02-26T13:38:25;0.80;;;0.80;;
56373;SDS011;58212;47.034;7.376;2024-02-26T13:40:53;1.00;;;0.73;;
56373;SDS011;58212;47.034;7.376;2024-02-26T13:43:20;1.33;;;0.68;;
56373;SDS011;58212;47.034;7.376;2024-02-26T13:45:49;0.75;;;0.75;;
56373;SDS011;58212;47.034;7.376;2024-02-26T13:48:16;0.80;;;0.80;;
56373;SDS011;58212;47.034;7.376;2024-02-26T13:50:43;0.63;;;0.63;;
56373;SDS011;58212;47.034;7.376;2024-02-26T13:53:10;0.65;;;0.60;;
56373;SDS011;58212;47.034;7.376;2024-02-26T13:55:37;1.20;;;0.70;;
56373;SDS011;58212;47.034;7.376;2024-02-26T13:58:07;0.90;;;0.80;;
56373;SDS011;58212;47.034;7.376;2024-02-26T14:00:37;1.00;;;0.73;;
56373;SDS011;58212;47.034;7.376;2024-02-26T14:03:06;0.80;;;0.70;;
56373;SDS011;58212;47.034;7.376;2024-02-26T14:05:33;0.60;;;0.60;;
56373;SDS011;58212;47.034;7.376;2024-02-26T14:08:00;1.00;;;0.70;;
56373;SDS011;58212;47.034;7.376;2024-02-26T14:10:27;0.90;;;0.90;;
56373;SDS011;58212;47.034;7.376;2024-02-26T14:12:53;2.03;;;0.73;;
56373;SDS011;58212;47.034;7.376;2024-02-26T14:15:20;1.05;;;0.93;;
56373;SDS011;58212;47.034;7.376;2024-02-26T14:17:47;0.70;;;0.70;;
56373;SDS011;58212;47.034;7.376;2024-02-26T14:20:20;1.35;;;0.60;;
56373;SDS011;58212;47.034;7.376;2024-02-26T14:22:47;0.70;;;0.70;;
56373;SDS011;58212;47.034;7.376;2024-02-26T14:25:14;0.80;;;0.80;;
56373;SDS011;58212;47.034;7.376;2024-02-26T14:27:41;0.80;;;0.80;;
56373;SDS011;58212;47.034;7.376;2024-02-26T14:30:08;1.08;;;0.90;;
56373;SDS011;58212;47.034;7.376;2024-02-26T14:32:35;0.90;;;0.90;;
56373;SDS011;58212;47.034;7.376;2024-02-26T14:35:04;0.75;;;0.70;;
56373;SDS011;58212;47.034;7.376;2024-02-26T14:37:34;5.88;;;1.13;;
56373;SDS011;58212;47.034;7.376;2024-02-26T14:40:01;1.83;;;0.90;;
56373;SDS011;58212;47.034;7.376;2024-02-26T14:42:29;1.63;;;0.80;;
56373;SDS011;58212;47.034;7.376;2024-02-26T14:44:56;1.30;;;0.90;;
56373;SDS011;58212;47.034;7.376;2024-02-26T14:47:23;1.13;;;0.80;;
56373;SDS011;58212;47.034;7.376;2024-02-26T14:49:49;1.55;;;1.00;;
56373;SDS011;58212;47.034;7.376;2024-02-26T14:52:17;1.40;;;1.02;;
56373;SDS011;58212;47.034;7.376;2024-02-26T14:54:45;0.80;;;0.80;;
56373;SDS011;58212;47.034;7.376;2024-02-26T14:57:12;1.95;;;1.00;;
56373;SDS011;58212;47.034;7.376;2024-02-26T14:59:39;0.80;;;0.80;;
56373;SDS011;58212;47.034;7.376;2024-02-26T15:02:06;1.48;;;0.75;;